Time;durP1;ratioP1;P1;durP2;ratioP2;P2;SDS_P1;SDS_P2;PMS_P1;PMS_P2;Temp;Humidity;BMP_temperature;BMP_pressure;BME280_temperature;BME280_humidity;BME280_pressure;Samples;Min_cycle;Max_cycle;Signal;HPM_P1;HPM_P2
2022/09/06 00:01:45;;;;;;;9.43;3.78;;;;;;;;;;5056945;28;20035;-71
2022/09/06 00:04:11;;;;;;;7.97;3.30;;;;;;;;;;5056600;28;20498;-71
2022/09/06 00:06:37;;;;;;;5.95;3.08;;;;;;;;;;5056522;28;20059;-72
2022/09/06 00:09:03;;;;;;;6.03;2.92;;;;;;;;;;5056489;28;20056;-72
2022/09/06 00:11:29;;;;;;;7.20;2.60;;;;;;;;;;5056487;28;20447;-72
2022/09/06 00:13:55;;;;;;;8.27;2.90;;;;;;;;;;5056446;28;20491;-72
2022/09/06 00:16:23;;;;;;;5.93;2.72;;;;;;;;;;5056390;28;20056;-71
2022/09/06 00:18:52;;;;;;;9.75;2.92;;;;;;;;;;5056271;28;20021;-71
2022/09/06 00:21:20;;;;;;;9.43;2.75;;;;;;;;;;5057383;28;20028;-71
2022/09/06 00:23:46;;;;;;;9.30;3.20;;;;;;;;;;5056265;28;20047;-71
2022/09/06 00:26:12;;;;;;;8.38;3.30;;;;;;;;;;5056239;28;20025;-72
2022/09/06 00:28:39;;;;;;;7.97;3.10;;;;;;;;;;5056205;28;20060;-73
2022/09/06 00:31:09;;;;;;;7.75;2.83;;;;;;;;;;5056144;28;20036;-73
2022/09/06 00:33:35;;;;;;;8.23;2.72;;;;;;;;;;5056137;28;20114;-70
2022/09/06 00:36:01;;;;;;;10.15;3.00;;;;;;;;;;5056311;28;20098;-73
2022/09/06 00:38:27;;;;;;;7.68;2.80;;;;;;;;;;5056232;28;20017;-71
2022/09/06 00:40:53;;;;;;;10.60;2.90;;;;;;;;;;5056274;28;20105;-71
2022/09/06 00:43:19;;;;;;;7.97;3.10;;;;;;;;;;5055942;28;20080;-72
2022/09/06 00:45:45;;;;;;;8.43;3.33;;;;;;;;;;5055834;28;20021;-71
2022/09/06 00:48:11;;;;;;;9.05;3.10;;;;;;;;;;5056065;28;20032;-71
2022/09/06 00:50:37;;;;;;;12.82;3.40;;;;;;;;;;5056281;28;20033;-71
2022/09/06 00:53:03;;;;;;;9.85;2.95;;;;;;;;;;5055685;28;20078;-72
2022/09/06 00:55:29;;;;;;;11.30;3.33;;;;;;;;;;5055674;28;20481;-71
2022/09/06 00:57:55;;;;;;;10.00;3.10;;;;;;;;;;5055401;28;20060;-71
2022/09/06 01:00:21;;;;;;;7.00;2.80;;;;;;;;;;5054545;28;20033;-72
2022/09/06 01:02:48;;;;;;;11.90;3.50;;;;;;;;;;5055511;28;20078;-72
2022/09/06 01:05:14;;;;;;;9.32;3.25;;;;;;;;;;5037506;28;20522;-69
2022/09/06 01:07:51;;;;;;;10.85;3.13;;;;;;;;;;5055448;28;20049;-71
2022/09/06 01:10:29;;;;;;;8.57;3.08;;;;;;;;;;5055394;28;20032;-71
2022/09/06 01:13:04;;;;;;;6.47;3.22;;;;;;;;;;5055613;28;20024;-72
2022/09/06 01:15:36;;;;;;;8.25;2.88;;;;;;;;;;5055554;28;20029;-70
2022/09/06 01:18:16;;;;;;;8.82;3.35;;;;;;;;;;5055226;28;20029;-70
2022/09/06 01:21:06;;;;;;;8.82;3.42;;;;;;;;;;5055903;28;20112;-73
2022/09/06 01:23:44;;;;;;;8.05;2.63;;;;;;;;;;5055737;28;20511;-71
2022/09/06 01:26:10;;;;;;;11.52;3.05;;;;;;;;;;5055641;28;20021;-71
2022/09/06 01:28:39;;;;;;;8.60;3.40;;;;;;;;;;5055312;28;20070;-72
2022/09/06 01:31:07;;;;;;;9.73;3.35;;;;;;;;;;5054997;28;20021;-70
2022/09/06 01:33:54;;;;;;;10.10;3.45;;;;;;;;;;5055235;28;20048;-73
2022/09/06 01:36:22;;;;;;;9.85;3.42;;;;;;;;;;5054983;28;20029;-72
2022/09/06 01:38:48;;;;;;;9.38;2.88;;;;;;;;;;5036899;28;20025;-71
2022/09/06 01:41:14;;;;;;;9.45;2.90;;;;;;;;;;5055078;28;20032;-71
2022/09/06 01:43:43;;;;;;;10.70;2.75;;;;;;;;;;5055021;28;20369;-71
2022/09/06 01:46:09;;;;;;;10.98;2.95;;;;;;;;;;5054668;28;20393;-73
2022/09/06 01:48:39;;;;;;;9.40;3.13;;;;;;;;;;5054694;28;20421;-71
2022/09/06 01:51:29;;;;;;;11.35;2.83;;;;;;;;;;5054947;28;20029;-70
2022/09/06 01:54:13;;;;;;;7.22;2.80;;;;;;;;;;5049183;28;20400;-70
2022/09/06 01:56:58;;;;;;;11.20;3.03;;;;;;;;;;5054319;28;20056;-72
2022/09/06 01:59:26;;;;;;;11.73;2.95;;;;;;;;;;5054663;28;20491;-70
2022/09/06 02:02:02;;;;;;;8.75;3.28;;;;;;;;;;5054930;28;20025;-72
2022/09/06 02:04:30;;;;;;;12.40;3.03;;;;;;;;;;5054699;28;20021;-71
2022/09/06 02:06:59;;;;;;;13.07;3.00;;;;;;;;;;5054477;28;20029;-72
2022/09/06 02:09:27;;;;;;;9.02;2.97;;;;;;;;;;5054520;28;20420;-72
2022/09/06 02:11:58;;;;;;;7.97;3.08;;;;;;;;;;5054387;28;20062;-72
2022/09/06 02:14:27;;;;;;;10.45;3.60;;;;;;;;;;5054181;28;20071;-72
2022/09/06 02:16:54;;;;;;;10.40;3.45;;;;;;;;;;5036301;28;20024;-72
2022/09/06 02:19:27;;;;;;;10.82;3.03;;;;;;;;;;5053989;28;20539;-71
2022/09/06 02:21:55;;;;;;;8.23;3.03;;;;;;;;;;5054884;28;20025;-71
2022/09/06 02:24:23;;;;;;;11.45;3.25;;;;;;;;;;5053995;28;20100;-72
2022/09/06 02:26:49;;;;;;;8.60;2.97;;;;;;;;;;5053932;28;20074;-71
2022/09/06 02:29:16;;;;;;;10.15;2.90;;;;;;;;;;5053914;28;20439;-71
2022/09/06 02:31:48;;;;;;;8.85;2.70;;;;;;;;;;5053842;28;20025;-71
2022/09/06 02:34:15;;;;;;;13.48;3.35;;;;;;;;;;5054331;28;20029;-71
2022/09/06 02:36:41;;;;;;;9.20;2.60;;;;;;;;;;5053762;28;20040;-71
2022/09/06 02:39:07;;;;;;;10.50;3.17;;;;;;;;;;5053657;28;20021;-72
2022/09/06 02:41:34;;;;;;;12.93;3.28;;;;;;;;;;5053698;28;20025;-71
2022/09/06 02:44:00;;;;;;;14.80;3.33;;;;;;;;;;5053610;28;20021;-72
2022/09/06 02:46:26;;;;;;;8.85;3.22;;;;;;;;;;5053879;28;20025;-71
2022/09/06 02:48:52;;;;;;;11.30;3.00;;;;;;;;;;5054113;28;20051;-73
2022/09/06 02:51:18;;;;;;;10.10;3.10;;;;;;;;;;5053497;28;20524;-71
2022/09/06 02:53:44;;;;;;;8.85;2.95;;;;;;;;;;5053497;28;20025;-72
2022/09/06 02:56:10;;;;;;;12.32;3.25;;;;;;;;;;5053447;28;20064;-71
2022/09/06 02:58:36;;;;;;;13.07;2.85;;;;;;;;;;5053020;28;20040;-71
2022/09/06 03:01:02;;;;;;;13.18;3.53;;;;;;;;;;5053399;28;20017;-72
2022/09/06 03:03:28;;;;;;;13.35;3.50;;;;;;;;;;5053365;28;20025;-71
2022/09/06 03:05:55;;;;;;;16.15;3.58;;;;;;;;;;5053538;28;20055;-71
2022/09/06 03:08:24;;;;;;;11.27;2.90;;;;;;;;;;5053279;28;20016;-71
2022/09/06 03:10:51;;;;;;;8.80;2.75;;;;;;;;;;5053288;28;20515;-72
2022/09/06 03:13:17;;;;;;;13.10;3.03;;;;;;;;;;5053243;28;20025;-71
2022/09/06 03:15:44;;;;;;;13.10;2.80;;;;;;;;;;5053150;28;20025;-72
2022/09/06 03:18:10;;;;;;;11.30;2.63;;;;;;;;;;5053420;28;20032;-70
2022/09/06 03:20:36;;;;;;;11.57;3.17;;;;;;;;;;5053857;28;20079;-72
2022/09/06 03:23:02;;;;;;;19.35;3.80;;;;;;;;;;5052871;28;20025;-72
2022/09/06 03:25:28;;;;;;;14.30;3.08;;;;;;;;;;5053416;28;20078;-71
2022/09/06 03:28:03;;;;;;;15.73;3.47;;;;;;;;;;5053125;28;20021;-71
2022/09/06 03:30:29;;;;;;;20.30;3.88;;;;;;;;;;5053652;28;20366;-72
2022/09/06 03:32:55;;;;;;;11.32;3.50;;;;;;;;;;5053012;28;20052;-72
2022/09/06 03:35:21;;;;;;;13.68;3.20;;;;;;;;;;5053295;28;20021;-71
2022/09/06 03:37:47;;;;;;;13.68;2.97;;;;;;;;;;5053003;28;20032;-74
2022/09/06 03:40:13;;;;;;;15.75;3.28;;;;;;;;;;5052911;28;20472;-73
2022/09/06 03:42:39;;;;;;;20.20;3.03;;;;;;;;;;5052950;28;20028;-72
2022/09/06 03:45:06;;;;;;;8.35;3.20;;;;;;;;;;5053247;28;20025;-72
2022/09/06 03:47:32;;;;;;;13.02;3.45;;;;;;;;;;5052970;28;20021;-73
2022/09/06 03:49:58;;;;;;;11.40;2.83;;;;;;;;;;5053175;28;20194;-72
2022/09/06 03:52:24;;;;;;;10.27;3.33;;;;;;;;;;5052891;28;20500;-73
2022/09/06 03:54:50;;;;;;;12.27;3.00;;;;;;;;;;5053420;28;20057;-73
2022/09/06 03:57:16;;;;;;;16.13;2.92;;;;;;;;;;5053040;28;20128;-72
2022/09/06 03:59:42;;;;;;;15.25;3.30;;;;;;;;;;5053005;28;20136;-72
2022/09/06 04:02:08;;;;;;;15.73;3.72;;;;;;;;;;5052739;28;20018;-71
2022/09/06 04:04:34;;;;;;;15.90;3.17;;;;;;;;;;5053024;28;20021;-73
2022/09/06 04:07:00;;;;;;;13.70;2.78;;;;;;;;;;5052641;28;20041;-71
2022/09/06 04:09:26;;;;;;;12.60;3.55;;;;;;;;;;5052712;28;20037;-71
2022/09/06 04:11:52;;;;;;;11.57;3.03;;;;;;;;;;5052695;28;20028;-73
2022/09/06 04:14:18;;;;;;;15.10;3.25;;;;;;;;;;5052963;28;20036;-72
2022/09/06 04:16:44;;;;;;;14.23;3.47;;;;;;;;;;5052651;28;20481;-72
2022/09/06 04:19:10;;;;;;;10.77;2.97;;;;;;;;;;5052776;28;20078;-71
2022/09/06 04:21:36;;;;;;;14.23;3.10;;;;;;;;;;5053120;28;20017;-71
2022/09/06 04:24:02;;;;;;;17.50;3.28;;;;;;;;;;5052550;28;20108;-72
2022/09/06 04:26:28;;;;;;;16.13;3.22;;;;;;;;;;5052798;28;20429;-72
2022/09/06 04:28:54;;;;;;;12.15;2.72;;;;;;;;;;5052760;28;20078;-71
2022/09/06 04:31:20;;;;;;;12.70;3.28;;;;;;;;;;5052483;28;20074;-73
2022/09/06 04:33:47;;;;;;;12.15;2.92;;;;;;;;;;5052480;28;20495;-72
2022/09/06 04:36:13;;;;;;;9.02;3.45;;;;;;;;;;5056151;28;20516;-71
2022/09/06 04:38:40;;;;;;;15.65;3.15;;;;;;;;;;5055930;28;20082;-72
2022/09/06 04:41:07;;;;;;;18.25;3.88;;;;;;;;;;5056264;28;20032;-72
2022/09/06 04:43:33;;;;;;;10.05;2.78;;;;;;;;;;5055959;28;20021;-71
2022/09/06 04:46:03;;;;;;;12.27;3.35;;;;;;;;;;5056164;28;20029;-73
2022/09/06 04:48:29;;;;;;;9.95;3.28;;;;;;;;;;5055820;28;20029;-72
2022/09/06 04:50:55;;;;;;;17.73;3.30;;;;;;;;;;5055769;28;20096;-70
2022/09/06 04:53:21;;;;;;;10.15;2.95;;;;;;;;;;5055711;28;20107;-72
2022/09/06 04:55:47;;;;;;;18.88;3.53;;;;;;;;;;5055664;28;20032;-72
2022/09/06 04:58:13;;;;;;;16.33;3.53;;;;;;;;;;5055430;28;20098;-71
2022/09/06 05:00:41;;;;;;;13.73;2.72;;;;;;;;;;5055508;28;20112;-73
2022/09/06 05:03:08;;;;;;;12.18;2.47;;;;;;;;;;5055538;28;20048;-72
2022/09/06 05:05:34;;;;;;;11.27;3.20;;;;;;;;;;5037593;28;20017;-72
2022/09/06 05:08:00;;;;;;;13.38;3.20;;;;;;;;;;5055733;28;20088;-73
2022/09/06 05:10:26;;;;;;;18.45;2.80;;;;;;;;;;5055416;28;20481;-72
2022/09/06 05:12:53;;;;;;;15.45;3.88;;;;;;;;;;5055307;28;20036;-72
2022/09/06 05:15:20;;;;;;;15.65;3.50;;;;;;;;;;5055373;28;20389;-71
2022/09/06 05:17:46;;;;;;;15.32;2.78;;;;;;;;;;5055316;28;20231;-73
2022/09/06 05:20:12;;;;;;;12.82;3.05;;;;;;;;;;5055442;28;20422;-72
2022/09/06 05:22:38;;;;;;;19.38;3.60;;;;;;;;;;5055735;28;20025;-71
2022/09/06 05:25:04;;;;;;;17.45;3.83;;;;;;;;;;5055133;28;20381;-73
2022/09/06 05:27:30;;;;;;;22.10;4.53;;;;;;;;;;5055393;28;20025;-71
2022/09/06 05:29:56;;;;;;;17.05;3.95;;;;;;;;;;5055045;28;20025;-73
2022/09/06 05:32:22;;;;;;;13.20;2.85;;;;;;;;;;5054985;28;20029;-73
2022/09/06 05:34:48;;;;;;;16.45;3.35;;;;;;;;;;5055284;28;20025;-71
2022/09/06 05:37:14;;;;;;;13.82;2.47;;;;;;;;;;5055185;28;20083;-72
2022/09/06 05:39:40;;;;;;;18.08;4.25;;;;;;;;;;5054807;28;20392;-71
2022/09/06 05:42:06;;;;;;;18.65;3.72;;;;;;;;;;5054773;28;20476;-72
2022/09/06 05:44:36;;;;;;;11.65;2.80;;;;;;;;;;5054710;28;20426;-73
2022/09/06 05:47:03;;;;;;;17.30;3.13;;;;;;;;;;5054695;28;20025;-72
2022/09/06 05:49:29;;;;;;;13.55;2.90;;;;;;;;;;5054691;28;20024;-71
2022/09/06 05:51:56;;;;;;;17.20;3.22;;;;;;;;;;5054611;28;20032;-72
2022/09/06 05:54:22;;;;;;;14.30;3.40;;;;;;;;;;5054593;28;20035;-71
2022/09/06 05:56:49;;;;;;;16.27;3.13;;;;;;;;;;5054381;28;20033;-73
2022/09/06 05:59:15;;;;;;;14.32;3.22;;;;;;;;;;5054690;28;20032;-71
2022/09/06 06:01:48;;;;;;;12.82;2.90;;;;;;;;;;5054708;28;20428;-71
2022/09/06 06:04:14;;;;;;;13.82;3.60;;;;;;;;;;5054678;28;20096;-73
2022/09/06 06:06:40;;;;;;;15.02;3.53;;;;;;;;;;5054269;28;20021;-72
2022/09/06 06:09:06;;;;;;;16.60;3.10;;;;;;;;;;5054250;28;20025;-71
2022/09/06 06:11:34;;;;;;;14.02;3.22;;;;;;;;;;5054273;28;20374;-72
2022/09/06 06:14:01;;;;;;;16.30;3.17;;;;;;;;;;5054269;28;20104;-71
2022/09/06 06:16:27;;;;;;;13.93;3.70;;;;;;;;;;5054223;28;20441;-73
2022/09/06 06:18:54;;;;;;;11.88;3.40;;;;;;;;;;5054065;28;20035;-70
2022/09/06 06:21:21;;;;;;;8.88;2.33;;;;;;;;;;5054621;28;20055;-73
2022/09/06 06:23:49;;;;;;;11.75;2.47;;;;;;;;;;5054069;28;20017;-72
2022/09/06 06:26:15;;;;;;;17.52;2.70;;;;;;;;;;5053975;28;20440;-72
2022/09/06 06:28:42;;;;;;;11.43;3.28;;;;;;;;;;5053940;28;20476;-72
2022/09/06 06:31:09;;;;;;;13.93;4.00;;;;;;;;;;5053874;28;20025;-73
2022/09/06 06:33:35;;;;;;;11.45;2.75;;;;;;;;;;5053858;28;20021;-71
2022/09/06 06:36:03;;;;;;;18.27;2.97;;;;;;;;;;5053828;28;20021;-72
2022/09/06 06:38:30;;;;;;;15.40;3.50;;;;;;;;;;5053763;28;20489;-72
2022/09/06 06:40:56;;;;;;;14.75;4.22;;;;;;;;;;5053656;28;20478;-71
2022/09/06 06:43:22;;;;;;;11.48;2.75;;;;;;;;;;5053654;28;20032;-71
2022/09/06 06:45:49;;;;;;;11.18;2.85;;;;;;;;;;5053648;28;20051;-70
2022/09/06 06:48:16;;;;;;;10.18;2.75;;;;;;;;;;5053866;28;20017;-72
2022/09/06 06:50:42;;;;;;;13.93;3.47;;;;;;;;;;5052967;28;20029;-76
2022/09/06 06:53:08;;;;;;;14.07;2.78;;;;;;;;;;5052244;28;20032;-76
2022/09/06 06:55:34;;;;;;;12.15;3.88;;;;;;;;;;5049555;28;20025;-79
2022/09/06 06:58:00;;;;;;;12.35;2.88;;;;;;;;;;5050445;28;20040;-78
2022/09/06 07:00:26;;;;;;;18.60;3.35;;;;;;;;;;5051600;28;20086;-79
2022/09/06 07:02:54;;;;;;;10.93;2.92;;;;;;;;;;5034478;28;20021;-79
2022/09/06 07:05:21;;;;;;;11.45;2.53;;;;;;;;;;5034049;28;20036;-77
2022/09/06 07:07:46;;;;;;;11.00;2.63;;;;;;;;;;5053296;28;20021;-77
2022/09/06 07:10:13;;;;;;;16.75;3.10;;;;;;;;;;5051178;28;20443;-73
2022/09/06 07:12:39;;;;;;;16.63;3.83;;;;;;;;;;5053215;28;20036;-74
2022/09/06 07:15:05;;;;;;;11.23;2.72;;;;;;;;;;5033710;28;20082;-76
2022/09/06 07:17:31;;;;;;;16.77;3.38;;;;;;;;;;5053177;28;20032;-75
2022/09/06 07:19:57;;;;;;;13.32;3.03;;;;;;;;;;5053627;28;20601;-74
2022/09/06 07:22:23;;;;;;;11.38;2.75;;;;;;;;;;5050548;28;20508;-75
2022/09/06 07:24:50;;;;;;;10.23;2.13;;;;;;;;;;5050480;28;20028;-74
2022/09/06 07:27:16;;;;;;;7.88;1.83;;;;;;;;;;5031895;28;20035;-73
2022/09/06 07:29:42;;;;;;;10.52;2.72;;;;;;;;;;5049993;28;20155;-76
2022/09/06 07:32:08;;;;;;;10.27;2.60;;;;;;;;;;5051090;28;20060;-73
2022/09/06 07:34:36;;;;;;;7.75;2.20;;;;;;;;;;5052678;28;20485;-73
2022/09/06 07:37:02;;;;;;;9.35;2.47;;;;;;;;;;5053032;28;20025;-73
2022/09/06 07:39:28;;;;;;;8.70;2.08;;;;;;;;;;5051058;28;20039;-74
2022/09/06 07:41:54;;;;;;;10.20;1.83;;;;;;;;;;5050863;28;20096;-77
2022/09/06 07:44:20;;;;;;;6.85;1.98;;;;;;;;;;5051881;28;20033;-77
2022/09/06 07:46:46;;;;;;;4.40;1.58;;;;;;;;;;5052237;28;20113;-75
2022/09/06 07:49:12;;;;;;;7.05;1.65;;;;;;;;;;5049613;28;20540;-72
2022/09/06 07:51:38;;;;;;;5.65;1.80;;;;;;;;;;5050568;28;20032;-76
2022/09/06 07:54:05;;;;;;;9.10;2.13;;;;;;;;;;5050659;28;20082;-74
2022/09/06 07:56:31;;;;;;;4.90;1.45;;;;;;;;;;5050972;28;20047;-70
2022/09/06 07:58:57;;;;;;;4.60;1.40;;;;;;;;;;5052565;28;20401;-76
2022/09/06 08:01:33;;;;;;;3.47;1.20;;;;;;;;;;5050127;28;20028;-68
2022/09/06 08:04:02;;;;;;;6.63;1.83;;;;;;;;;;5033398;28;20036;-70
2022/09/06 08:06:30;;;;;;;7.35;1.65;;;;;;;;;;5032803;28;20026;-73
2022/09/06 08:08:56;;;;;;;5.50;2.08;;;;;;;;;;5042346;28;20121;-74
2022/09/06 08:11:23;;;;;;;6.90;1.70;;;;;;;;;;5056897;28;20028;-72
2022/09/06 08:13:56;;;;;;;5.78;1.60;;;;;;;;;;5055560;28;20029;-71
2022/09/06 08:16:23;;;;;;;5.90;1.70;;;;;;;;;;5054365;28;20029;-78
2022/09/06 08:18:50;;;;;;;6.20;1.67;;;;;;;;;;5056315;28;20029;-76
2022/09/06 08:21:16;;;;;;;4.03;1.33;;;;;;;;;;5056458;28;20024;-74
2022/09/06 08:23:51;;;;;;;5.72;1.65;;;;;;;;;;5054522;28;20426;-75
2022/09/06 08:26:19;;;;;;;11.63;1.50;;;;;;;;;;5055858;28;20551;-71
2022/09/06 08:28:45;;;;;;;3.72;1.33;;;;;;;;;;5056612;28;20021;-72
2022/09/06 08:31:15;;;;;;;6.50;1.67;;;;;;;;;;5056649;28;20021;-72
2022/09/06 08:33:42;;;;;;;8.60;1.95;;;;;;;;;;5038256;28;20367;-78
2022/09/06 08:36:08;;;;;;;5.78;1.50;;;;;;;;;;5054359;28;20025;-75
2022/09/06 08:38:35;;;;;;;7.63;2.63;;;;;;;;;;5056032;28;20070;-77
2022/09/06 08:41:16;;;;;;;6.22;1.80;;;;;;;;;;5050461;28;20029;-77
2022/09/06 08:43:48;;;;;;;6.97;2.08;;;;;;;;;;5051711;28;20086;-73
2022/09/06 08:46:15;;;;;;;6.40;1.60;;;;;;;;;;5056000;28;20025;-76
2022/09/06 08:48:41;;;;;;;9.45;2.25;;;;;;;;;;5042784;28;20033;-75
2022/09/06 08:51:25;;;;;;;7.45;1.52;;;;;;;;;;5036180;28;20036;-75
2022/09/06 08:53:54;;;;;;;6.50;1.67;;;;;;;;;;5040018;28;20021;-75
2022/09/06 08:56:25;;;;;;;5.20;1.60;;;;;;;;;;5053161;28;20074;-75
2022/09/06 08:58:54;;;;;;;5.30;1.60;;;;;;;;;;5053159;28;20073;-76
2022/09/06 09:01:24;;;;;;;5.00;1.27;;;;;;;;;;5052533;28;20524;-74
2022/09/06 09:03:52;;;;;;;3.42;1.02;;;;;;;;;;5055607;28;20492;-74
2022/09/06 09:06:18;;;;;;;4.20;1.30;;;;;;;;;;5052432;28;20110;-75
2022/09/06 09:08:45;;;;;;;5.10;1.30;;;;;;;;;;5055028;28;20477;-74
2022/09/06 09:11:16;;;;;;;4.55;1.90;;;;;;;;;;5051872;28;20021;-76
2022/09/06 09:13:50;;;;;;;4.85;1.13;;;;;;;;;;5052444;28;20021;-74
2022/09/06 09:16:17;;;;;;;5.43;1.40;;;;;;;;;;5053788;28;20029;-79
2022/09/06 09:18:47;;;;;;;4.03;1.20;;;;;;;;;;5055251;28;20389;-76
2022/09/06 09:21:13;;;;;;;4.55;1.10;;;;;;;;;;5054759;28;20032;-78
2022/09/06 09:23:39;;;;;;;6.00;1.65;;;;;;;;;;5056259;28;20031;-76
2022/09/06 09:26:09;;;;;;;6.65;1.70;;;;;;;;;;5037320;28;20021;-72
2022/09/06 09:28:35;;;;;;;1.15;0.70;;;;;;;;;;5055324;28;20017;-75
2022/09/06 09:31:01;;;;;;;5.05;1.10;;;;;;;;;;5054581;28;20063;-76
2022/09/06 09:33:28;;;;;;;3.85;1.23;;;;;;;;;;5055109;28;20025;-74
2022/09/06 09:35:55;;;;;;;3.30;1.08;;;;;;;;;;5055112;28;20074;-75
2022/09/06 09:38:41;;;;;;;4.80;1.33;;;;;;;;;;5055327;28;20020;-72
2022/09/06 09:41:08;;;;;;;7.57;1.33;;;;;;;;;;5054948;28;20029;-78
2022/09/06 09:43:37;;;;;;;4.43;0.95;;;;;;;;;;5052806;28;20029;-76
2022/09/06 09:46:09;;;;;;;5.07;1.67;;;;;;;;;;5054004;28;20489;-79
2022/09/06 09:48:35;;;;;;;4.40;1.02;;;;;;;;;;5054051;28;20039;-76
2022/09/06 09:51:16;;;;;;;2.13;0.80;;;;;;;;;;5053896;28;20151;-70
2022/09/06 09:53:53;;;;;;;5.28;1.67;;;;;;;;;;5033056;28;20032;-79
2022/09/06 09:56:37;;;;;;;3.88;1.08;;;;;;;;;;5053783;28;20025;-75
2022/09/06 09:59:07;;;;;;;4.55;1.20;;;;;;;;;;5052262;28;20079;-77
2022/09/06 10:01:33;;;;;;;4.88;1.67;;;;;;;;;;5052439;28;20033;-76
2022/09/06 10:04:07;;;;;;;8.45;2.03;;;;;;;;;;5054430;28;20045;-75
2022/09/06 10:06:33;;;;;;;2.92;1.13;;;;;;;;;;5054547;28;20025;-75
2022/09/06 10:09:11;;;;;;;7.72;1.77;;;;;;;;;;5054711;28;20021;-72
2022/09/06 10:11:39;;;;;;;4.03;1.42;;;;;;;;;;5054861;28;20021;-75
2022/09/06 10:14:12;;;;;;;8.07;1.70;;;;;;;;;;5053017;28;20032;-74
2022/09/06 10:16:43;;;;;;;4.85;1.58;;;;;;;;;;5052288;28;20047;-74
2022/09/06 10:19:28;;;;;;;5.57;1.60;;;;;;;;;;5052147;28;20040;-76
2022/09/06 10:21:58;;;;;;;7.78;1.95;;;;;;;;;;5054386;28;20070;-76
2022/09/06 10:24:31;;;;;;;10.32;2.15;;;;;;;;;;5054252;28;20025;-74
2022/09/06 10:26:59;;;;;;;9.30;2.42;;;;;;;;;;5054290;28;20052;-75
2022/09/06 10:29:51;;;;;;;7.97;2.10;;;;;;;;;;5053914;28;20037;-74
2022/09/06 10:32:17;;;;;;;8.48;2.05;;;;;;;;;;5052365;28;20112;-74
2022/09/06 10:34:43;;;;;;;6.85;2.17;;;;;;;;;;5053811;28;20067;-73
2022/09/06 10:37:09;;;;;;;7.07;2.17;;;;;;;;;;5047941;28;20017;-71
2022/09/06 10:39:38;;;;;;;10.23;2.28;;;;;;;;;;5053202;28;20083;-71
2022/09/06 10:42:23;;;;;;;7.85;1.92;;;;;;;;;;5054286;28;20135;-71
2022/09/06 10:44:52;;;;;;;5.60;1.50;;;;;;;;;;5053945;28;20511;-70
2022/09/06 10:47:18;;;;;;;7.32;1.73;;;;;;;;;;5053937;28;20025;-71
2022/09/06 10:49:45;;;;;;;7.22;1.90;;;;;;;;;;5054132;28;20025;-71
2022/09/06 10:52:14;;;;;;;6.05;2.15;;;;;;;;;;5054106;28;20378;-72
2022/09/06 10:54:45;;;;;;;8.77;2.22;;;;;;;;;;5053541;28;20493;-71
2022/09/06 10:57:16;;;;;;;10.57;2.10;;;;;;;;;;5053410;28;20045;-71
2022/09/06 10:59:47;;;;;;;9.52;2.10;;;;;;;;;;5053698;28;20086;-70
2022/09/06 11:02:31;;;;;;;6.53;1.77;;;;;;;;;;5053592;28;20094;-71
2022/09/06 11:04:59;;;;;;;7.63;2.13;;;;;;;;;;5053283;28;20492;-70
2022/09/06 11:07:30;;;;;;;5.93;2.10;;;;;;;;;;5053372;28;20100;-70
2022/09/06 11:10:25;;;;;;;7.30;2.25;;;;;;;;;;5053595;28;20021;-70
2022/09/06 11:12:57;;;;;;;8.82;2.05;;;;;;;;;;5044386;28;20045;-72
2022/09/06 11:15:24;;;;;;;7.82;1.90;;;;;;;;;;5053264;28;20021;-71
2022/09/06 11:17:57;;;;;;;9.13;2.40;;;;;;;;;;5035368;28;20416;-71
2022/09/06 11:20:26;;;;;;;5.15;1.48;;;;;;;;;;5053123;28;20088;-71
2022/09/06 11:23:11;;;;;;;8.90;2.05;;;;;;;;;;5053684;28;20032;-71
2022/09/06 11:25:49;;;;;;;9.45;2.03;;;;;;;;;;5053419;28;20025;-70
2022/09/06 11:28:16;;;;;;;6.05;1.80;;;;;;;;;;5053095;28;20024;-71
2022/09/06 11:30:45;;;;;;;6.03;1.90;;;;;;;;;;5053100;28;20033;-71
2022/09/06 11:33:28;;;;;;;11.40;2.13;;;;;;;;;;5035252;28;20033;-71
2022/09/06 11:36:14;;;;;;;5.97;1.95;;;;;;;;;;5053352;28;20507;-72
2022/09/06 11:38:41;;;;;;;9.45;2.03;;;;;;;;;;5053040;28;20033;-70
2022/09/06 11:41:13;;;;;;;10.07;2.08;;;;;;;;;;5052933;28;20052;-71
2022/09/06 11:43:42;;;;;;;9.82;2.00;;;;;;;;;;5054282;28;20032;-71
2022/09/06 11:46:08;;;;;;;9.67;2.07;;;;;;;;;;5057016;28;20027;-71
2022/09/06 11:48:42;;;;;;;8.77;1.83;;;;;;;;;;5057271;28;20056;-71
2022/09/06 11:51:11;;;;;;;11.35;2.00;;;;;;;;;;5057256;28;20052;-71
2022/09/06 11:53:49;;;;;;;10.07;2.10;;;;;;;;;;5056888;28;20024;-71
2022/09/06 11:56:24;;;;;;;8.07;2.25;;;;;;;;;;5056799;28;20053;-71
2022/09/06 11:58:53;;;;;;;9.20;2.25;;;;;;;;;;5056187;28;20053;-71
2022/09/06 12:01:19;;;;;;;11.82;2.45;;;;;;;;;;5056875;28;20108;-71
2022/09/06 12:03:48;;;;;;;10.93;2.72;;;;;;;;;;5056661;28;20021;-71
2022/09/06 12:06:18;;;;;;;10.32;2.13;;;;;;;;;;5056716;28;20055;-71
2022/09/06 12:08:44;;;;;;;8.63;2.72;;;;;;;;;;5056600;28;20104;-71
2022/09/06 12:11:27;;;;;;;9.40;2.53;;;;;;;;;;5056737;28;20071;-70
2022/09/06 12:13:58;;;;;;;8.63;1.95;;;;;;;;;;5056748;28;20029;-71
2022/09/06 12:16:44;;;;;;;7.47;2.05;;;;;;;;;;5056453;28;20029;-70
2022/09/06 12:19:30;;;;;;;6.72;1.95;;;;;;;;;;5056156;28;20028;-70
2022/09/06 12:21:56;;;;;;;7.43;1.67;;;;;;;;;;5056690;28;20047;-71
2022/09/06 12:24:34;;;;;;;7.13;1.63;;;;;;;;;;5056260;28;20017;-70
2022/09/06 12:27:17;;;;;;;6.40;1.77;;;;;;;;;;5056792;28;20071;-70
2022/09/06 12:29:53;;;;;;;3.92;1.58;;;;;;;;;;5056756;28;20021;-71
2022/09/06 12:32:21;;;;;;;6.32;1.52;;;;;;;;;;5056748;28;20032;-71
2022/09/06 12:34:47;;;;;;;8.27;1.90;;;;;;;;;;5056388;28;20535;-70
2022/09/06 12:37:13;;;;;;;6.93;2.17;;;;;;;;;;5056116;28;20029;-70
2022/09/06 12:39:39;;;;;;;9.75;2.28;;;;;;;;;;5055995;28;20036;-70
2022/09/06 12:42:11;;;;;;;10.18;2.10;;;;;;;;;;5055968;28;20025;-70
2022/09/06 12:44:44;;;;;;;8.10;2.10;;;;;;;;;;5055934;28;20508;-72
2022/09/06 12:47:25;;;;;;;9.77;2.28;;;;;;;;;;5056216;28;20040;-71
2022/09/06 12:50:13;;;;;;;4.40;1.60;;;;;;;;;;5056414;28;20032;-71
2022/09/06 12:52:45;;;;;;;14.48;3.20;;;;;;;;;;5056447;28;20029;-70
2022/09/06 12:55:16;;;;;;;9.98;2.95;;;;;;;;;;5055073;28;20419;-71
2022/09/06 12:57:47;;;;;;;10.15;2.83;;;;;;;;;;5055525;28;20057;-71
2022/09/06 13:00:13;;;;;;;6.55;2.08;;;;;;;;;;5056203;28;20033;-71
2022/09/06 13:02:54;;;;;;;7.50;2.50;;;;;;;;;;5056216;28;20443;-70
2022/09/06 13:05:21;;;;;;;6.70;1.98;;;;;;;;;;5055813;28;20021;-71
2022/09/06 13:07:50;;;;;;;11.85;2.17;;;;;;;;;;5055571;28;20022;-71
2022/09/06 13:10:18;;;;;;;9.23;2.30;;;;;;;;;;5055490;28;20033;-70
2022/09/06 13:12:47;;;;;;;9.13;2.22;;;;;;;;;;5056005;28;20031;-70
2022/09/06 13:15:16;;;;;;;13.43;2.37;;;;;;;;;;5055443;28;20035;-71
2022/09/06 13:17:43;;;;;;;6.10;1.90;;;;;;;;;;5055384;28;20029;-71
2022/09/06 13:20:13;;;;;;;7.25;2.22;;;;;;;;;;5055249;28;20025;-71
2022/09/06 13:22:42;;;;;;;7.38;1.98;;;;;;;;;;5056014;28;20473;-70
2022/09/06 13:25:23;;;;;;;8.15;2.60;;;;;;;;;;5055799;28;20021;-70
2022/09/06 13:27:55;;;;;;;7.22;1.80;;;;;;;;;;5055495;28;20021;-70
2022/09/06 13:30:31;;;;;;;11.40;2.10;;;;;;;;;;5055734;28;20495;-71
2022/09/06 13:32:58;;;;;;;7.40;2.17;;;;;;;;;;5055594;28;20029;-71
2022/09/06 13:35:25;;;;;;;6.72;1.70;;;;;;;;;;5055013;28;20032;-71
2022/09/06 13:37:51;;;;;;;5.60;1.67;;;;;;;;;;5055247;28;20465;-71
2022/09/06 13:40:36;;;;;;;8.55;2.13;;;;;;;;;;5054880;28;20032;-70
2022/09/06 13:43:02;;;;;;;8.98;1.98;;;;;;;;;;5055154;28;20028;-71
2022/09/06 13:45:29;;;;;;;8.93;2.60;;;;;;;;;;5055113;28;20476;-71
2022/09/06 13:47:55;;;;;;;9.38;2.80;;;;;;;;;;5054818;28;20052;-71
2022/09/06 13:50:27;;;;;;;7.20;2.22;;;;;;;;;;5054777;28;20017;-71
2022/09/06 13:52:53;;;;;;;15.02;2.85;;;;;;;;;;5054987;28;20025;-70
2022/09/06 13:55:30;;;;;;;9.48;2.22;;;;;;;;;;5054656;28;20096;-71
2022/09/06 13:57:56;;;;;;;12.45;3.10;;;;;;;;;;5054579;28;20102;-71
2022/09/06 14:00:22;;;;;;;14.82;2.92;;;;;;;;;;5054451;28;20100;-72
2022/09/06 14:02:49;;;;;;;11.18;3.50;;;;;;;;;;5054477;28;20491;-71
2022/09/06 14:05:16;;;;;;;11.10;3.72;;;;;;;;;;5054393;28;20021;-71
2022/09/06 14:07:42;;;;;;;13.13;3.78;;;;;;;;;;5054125;28;20092;-71
2022/09/06 14:10:10;;;;;;;13.52;3.97;;;;;;;;;;5054914;28;20103;-70
2022/09/06 14:12:36;;;;;;;10.70;2.95;;;;;;;;;;5054587;28;20021;-71
2022/09/06 14:15:03;;;;;;;9.52;2.38;;;;;;;;;;5054214;28;20090;-72
2022/09/06 14:17:29;;;;;;;18.13;3.15;;;;;;;;;;5054723;28;20029;-71
2022/09/06 14:19:55;;;;;;;13.30;2.85;;;;;;;;;;5054334;28;20025;-71
2022/09/06 14:22:21;;;;;;;13.32;2.92;;;;;;;;;;5055138;28;20035;-71
2022/09/06 14:24:47;;;;;;;11.68;2.67;;;;;;;;;;5054057;28;20092;-71
2022/09/06 14:27:13;;;;;;;9.45;2.60;;;;;;;;;;5054041;28;20500;-71
2022/09/06 14:29:39;;;;;;;10.55;2.85;;;;;;;;;;5053933;28;20028;-71
2022/09/06 14:32:06;;;;;;;6.70;2.30;;;;;;;;;;5053917;28;20029;-71
2022/09/06 14:34:32;;;;;;;13.85;3.00;;;;;;;;;;5054411;28;20096;-70
2022/09/06 14:36:58;;;;;;;14.18;3.55;;;;;;;;;;5053861;28;20032;-70
2022/09/06 14:39:24;;;;;;;13.63;3.17;;;;;;;;;;5053719;28;20381;-71
2022/09/06 14:41:50;;;;;;;13.27;2.97;;;;;;;;;;5053760;28;20021;-70
2022/09/06 14:44:16;;;;;;;13.85;2.92;;;;;;;;;;5053705;28;20017;-71
2022/09/06 14:46:42;;;;;;;13.50;3.65;;;;;;;;;;5053718;28;20063;-71